Time;durP1;ratioP1;P1;durP2;ratioP2;P2;SDS_P1;SDS_P2;PMS_P1;PMS_P2;Temp;Humidity;BMP_temperature;BMP_pressure;BME280_temperature;BME280_humidity;BME280_pressure;Samples;Min_cycle;Max_cycle;Signal;HPM_P1;HPM_P2
2022/05/19 00:01:35;;;;;;;;;;;19.40;63.40;;;;;;5032887;28;1918;-76
2022/05/19 00:04:00;;;;;;;;;;;19.40;63.40;;;;;;5053792;28;1064;-76
2022/05/19 00:06:26;;;;;;;;;;;19.40;63.50;;;;;;5036094;28;1171;-76
2022/05/19 00:08:51;;;;;;;;;;;19.40;63.50;;;;;;5054084;28;1058;-76
2022/05/19 00:11:17;;;;;;;;;;;19.40;63.50;;;;;;5035034;28;1955;-75
2022/05/19 00:13:43;;;;;;;;;;;19.40;63.50;;;;;;5029634;28;1446;-75
2022/05/19 00:16:08;;;;;;;;;;;19.40;63.40;;;;;;5038146;28;1355;-76
2022/05/19 00:18:34;;;;;;;;;;;19.40;63.40;;;;;;5050999;28;1415;-75
2022/05/19 00:20:59;;;;;;;;;;;19.40;63.50;;;;;;5055540;28;1910;-73
2022/05/19 00:23:25;;;;;;;;;;;19.40;63.50;;;;;;5037826;28;1587;-75
2022/05/19 00:25:50;;;;;;;;;;;19.40;63.50;;;;;;5019451;28;1637;-73
2022/05/19 00:28:16;;;;;;;;;;;19.40;63.50;;;;;;5044474;28;962;-75
2022/05/19 00:30:41;;;;;;;;;;;19.40;63.50;;;;;;5031511;28;1314;-75
2022/05/19 00:33:08;;;;;;;;;;;19.40;63.50;;;;;;5035400;28;1396;-75
2022/05/19 00:35:34;;;;;;;;;;;19.40;63.50;;;;;;5022847;28;1264;-75
2022/05/19 00:38:00;;;;;;;;;;;19.40;63.50;;;;;;5053666;28;1037;-75
2022/05/19 00:40:25;;;;;;;;;;;19.40;63.50;;;;;;5035282;28;1890;-74
2022/05/19 00:42:51;;;;;;;;;;;19.40;63.50;;;;;;5043991;28;1298;-73
2022/05/19 00:45:18;;;;;;;;;;;19.40;63.50;;;;;;5049393;28;1424;-75
2022/05/19 00:48:06;;;;;;;;;;;19.40;63.50;;;;;;5035562;28;1151;-75
2022/05/19 00:50:34;;;;;;;;;;;19.40;63.50;;;;;;5031253;28;1343;-75
2022/05/19 00:53:21;;;;;;;;;;;19.40;63.50;;;;;;5044295;28;1298;-75
2022/05/19 00:55:46;;;;;;;;;;;19.40;63.50;;;;;;5024188;28;1061;-75
2022/05/19 00:58:13;;;;;;;;;;;19.40;63.50;;;;;;5019225;28;1418;-75
2022/05/19 01:00:40;;;;;;;;;;;19.40;63.50;;;;;;5040523;28;1894;-75
2022/05/19 01:03:05;;;;;;;;;;;19.40;63.50;;;;;;5024272;28;1371;-75
2022/05/19 01:05:36;;;;;;;;;;;19.40;63.50;;;;;;5024544;28;1491;-75
2022/05/19 01:08:04;;;;;;;;;;;19.40;63.50;;;;;;5035293;28;1424;-74
2022/05/19 01:10:29;;;;;;;;;;;19.40;63.50;;;;;;5034916;28;1373;-74
2022/05/19 01:12:55;;;;;;;;;;;19.40;63.50;;;;;;5052949;28;1457;-74
2022/05/19 01:15:21;;;;;;;;;;;19.40;63.50;;;;;;5043040;28;1030;-76
2022/05/19 01:17:46;;;;;;;;;;;19.40;63.50;;;;;;5017954;28;1190;-76
2022/05/19 01:20:22;;;;;;;;;;;19.40;63.50;;;;;;5052794;28;1894;-74
2022/05/19 01:23:06;;;;;;;;;;;19.40;63.50;;;;;;5021462;28;1290;-74
2022/05/19 01:25:50;;;;;;;;;;;19.40;63.50;;;;;;5039927;28;1059;-75
2022/05/19 01:28:15;;;;;;;;;;;19.40;63.50;;;;;;5041898;28;999;-75
2022/05/19 01:30:41;;;;;;;;;;;19.40;63.50;;;;;;5021825;28;1050;-75
2022/05/19 01:33:07;;;;;;;;;;;19.40;63.50;;;;;;5026308;28;1274;-74
2022/05/19 01:35:33;;;;;;;;;;;19.40;63.50;;;;;;5032146;28;1019;-74
2022/05/19 01:38:02;;;;;;;;;;;19.40;63.50;;;;;;5024675;28;849;-73
2022/05/19 01:40:34;;;;;;;;;;;19.40;63.50;;;;;;5039084;28;1989;-75
2022/05/19 01:43:02;;;;;;;;;;;19.40;63.50;;;;;;5034700;28;1331;-75
2022/05/19 01:45:34;;;;;;;;;;;19.40;63.60;;;;;;5021362;28;1300;-74
2022/05/19 01:48:18;;;;;;;;;;;19.40;63.60;;;;;;5034683;28;1395;-75
2022/05/19 01:50:47;;;;;;;;;;;19.40;63.50;;;;;;5052378;28;1345;-74
2022/05/19 01:53:26;;;;;;;;;;;19.40;63.50;;;;;;5034759;28;1437;-75
2022/05/19 01:55:52;;;;;;;;;;;19.40;63.60;;;;;;5040678;28;1186;-74
2022/05/19 01:58:22;;;;;;;;;;;19.40;63.50;;;;;;5036541;28;1612;-75
2022/05/19 02:00:48;;;;;;;;;;;19.40;63.50;;;;;;5034238;28;2235;-76
2022/05/19 02:03:18;;;;;;;;;;;19.40;63.50;;;;;;5019660;28;1718;-75
2022/05/19 02:05:43;;;;;;;;;;;19.40;63.50;;;;;;5034125;28;1107;-75
2022/05/19 02:08:13;;;;;;;;;;;19.40;63.50;;;;;;5052347;28;1032;-74
2022/05/19 02:10:41;;;;;;;;;;;19.40;63.50;;;;;;5034032;28;1111;-74
2022/05/19 02:13:06;;;;;;;;;;;19.40;63.50;;;;;;5034140;28;1332;-75
2022/05/19 02:15:34;;;;;;;;;;;19.40;63.50;;;;;;5034405;28;1446;-75
2022/05/19 02:17:59;;;;;;;;;;;19.40;63.50;;;;;;5036360;28;1391;-75
2022/05/19 02:20:25;;;;;;;;;;;19.40;63.50;;;;;;5042069;28;1957;-74
2022/05/19 02:22:51;;;;;;;;;;;19.40;63.60;;;;;;5034256;28;1215;-75
2022/05/19 02:25:21;;;;;;;;;;;19.40;63.60;;;;;;5039376;28;1271;-75
2022/05/19 02:28:04;;;;;;;;;;;19.40;63.60;;;;;;5053526;28;1178;-75
2022/05/19 02:30:31;;;;;;;;;;;19.40;63.50;;;;;;5035253;28;1197;-74
2022/05/19 02:32:56;;;;;;;;;;;19.40;63.50;;;;;;5053652;28;1364;-74
2022/05/19 02:35:22;;;;;;;;;;;19.40;63.50;;;;;;5055278;28;1211;-73
2022/05/19 02:37:47;;;;;;;;;;;19.40;63.50;;;;;;5037497;28;1317;-72
2022/05/19 02:40:13;;;;;;;;;;;19.40;63.50;;;;;;5054566;28;1979;-74
2022/05/19 02:42:39;;;;;;;;;;;19.40;63.50;;;;;;5037263;28;1321;-74
2022/05/19 02:45:04;;;;;;;;;;;19.40;63.50;;;;;;5036559;28;1255;-74
2022/05/19 02:47:30;;;;;;;;;;;19.40;63.50;;;;;;5017896;28;1142;-75
2022/05/19 02:49:55;;;;;;;;;;;19.40;63.50;;;;;;5019298;28;2219;-76
2022/05/19 02:52:21;;;;;;;;;;;19.40;63.50;;;;;;5031223;28;1576;-76
2022/05/19 02:54:46;;;;;;;;;;;19.40;63.60;;;;;;5055110;28;1072;-75
2022/05/19 02:57:11;;;;;;;;;;;19.40;63.60;;;;;;5048400;28;1067;-75
2022/05/19 02:59:37;;;;;;;;;;;19.40;63.60;;;;;;5011828;28;1077;-74
2022/05/19 03:02:03;;;;;;;;;;;19.40;63.60;;;;;;5038930;28;1973;-75
2022/05/19 03:04:28;;;;;;;;;;;19.40;63.60;;;;;;5037231;28;1323;-76
2022/05/19 03:06:53;;;;;;;;;;;19.40;63.60;;;;;;5055212;28;1048;-76
2022/05/19 03:09:19;;;;;;;;;;;19.40;63.50;;;;;;5054893;28;1094;-75
2022/05/19 03:11:44;;;;;;;;;;;19.40;63.60;;;;;;5037028;28;1368;-75
2022/05/19 03:14:10;;;;;;;;;;;19.40;63.60;;;;;;5053761;28;1082;-75
2022/05/19 03:16:37;;;;;;;;;;;19.40;63.60;;;;;;5036987;28;1363;-75
2022/05/19 03:19:03;;;;;;;;;;;19.40;63.60;;;;;;5056908;28;1367;-76
2022/05/19 03:21:28;;;;;;;;;;;19.40;63.60;;;;;;5055030;28;1977;-76
2022/05/19 03:23:53;;;;;;;;;;;19.40;63.60;;;;;;5046482;28;1162;-75
2022/05/19 03:26:19;;;;;;;;;;;19.40;63.60;;;;;;5054778;28;1119;-76
2022/05/19 03:28:44;;;;;;;;;;;19.40;63.60;;;;;;5054903;28;1139;-76
2022/05/19 03:31:10;;;;;;;;;;;19.50;63.60;;;;;;5054867;28;1123;-75
2022/05/19 03:33:35;;;;;;;;;;;19.40;63.60;;;;;;5037008;28;1284;-76
2022/05/19 03:36:01;;;;;;;;;;;19.40;63.60;;;;;;5054602;28;1132;-75
2022/05/19 03:38:26;;;;;;;;;;;19.40;63.60;;;;;;5035880;28;1204;-75
2022/05/19 03:40:52;;;;;;;;;;;19.40;63.60;;;;;;5054267;28;1902;-75
2022/05/19 03:43:17;;;;;;;;;;;19.40;63.60;;;;;;5041791;28;1277;-76
2022/05/19 03:45:42;;;;;;;;;;;19.40;63.60;;;;;;5034384;28;1207;-75
2022/05/19 03:48:08;;;;;;;;;;;19.40;63.60;;;;;;5009469;28;1152;-75
2022/05/19 03:50:33;;;;;;;;;;;19.40;63.60;;;;;;5036315;28;1115;-76
2022/05/19 03:52:59;;;;;;;;;;;19.40;63.60;;;;;;5036113;28;1263;-76
2022/05/19 03:55:25;;;;;;;;;;;19.40;63.60;;;;;;5049004;28;1080;-75
2022/05/19 03:57:50;;;;;;;;;;;19.40;63.60;;;;;;5028490;28;1269;-76
2022/05/19 04:00:16;;;;;;;;;;;19.40;63.60;;;;;;5048668;28;1902;-76
2022/05/19 04:02:41;;;;;;;;;;;19.40;63.60;;;;;;5012643;28;1308;-76
2022/05/19 04:05:07;;;;;;;;;;;19.40;63.60;;;;;;5052803;28;1124;-76
2022/05/19 04:07:32;;;;;;;;;;;19.40;63.60;;;;;;5044839;28;1234;-76
2022/05/19 04:09:58;;;;;;;;;;;19.40;63.60;;;;;;5035131;28;1127;-76
2022/05/19 04:12:23;;;;;;;;;;;19.40;63.60;;;;;;5028372;28;1367;-75
2022/05/19 04:14:49;;;;;;;;;;;19.40;63.60;;;;;;5016187;28;1116;-74
2022/05/19 04:17:15;;;;;;;;;;;19.40;63.60;;;;;;5036805;28;1162;-74
2022/05/19 04:19:40;;;;;;;;;;;19.40;63.60;;;;;;5055711;28;1395;-74
2022/05/19 04:22:06;;;;;;;;;;;19.40;64.40;;;;;;5053469;28;1965;-75
2022/05/19 04:24:31;;;;;;;;;;;19.40;63.60;;;;;;5035562;28;1162;-75
2022/05/19 04:26:56;;;;;;;;;;;19.40;63.60;;;;;;5045570;28;1111;-76
2022/05/19 04:29:22;;;;;;;;;;;19.40;63.70;;;;;;5035891;28;1127;-74
2022/05/19 04:31:47;;;;;;;;;;;19.40;63.60;;;;;;5053444;28;1274;-74
2022/05/19 04:34:13;;;;;;;;;;;19.40;63.60;;;;;;5044821;28;1194;-75
2022/05/19 04:36:38;;;;;;;;;;;19.40;63.70;;;;;;5016135;28;1262;-74
2022/05/19 04:39:04;;;;;;;;;;;19.40;63.60;;;;;;5051120;28;1136;-75
2022/05/19 04:41:29;;;;;;;;;;;19.40;63.60;;;;;;5031641;28;1905;-74
2022/05/19 04:43:54;;;;;;;;;;;19.40;63.60;;;;;;5052408;28;1018;-73
2022/05/19 04:46:20;;;;;;;;;;;19.40;63.60;;;;;;5035255;28;1283;-73
2022/05/19 04:48:45;;;;;;;;;;;19.40;63.60;;;;;;5036672;28;1161;-74
2022/05/19 04:51:11;;;;;;;;;;;19.40;63.60;;;;;;5024202;28;1085;-75
2022/05/19 04:53:36;;;;;;;;;;;19.40;63.70;;;;;;5042551;28;1221;-76
2022/05/19 04:56:02;;;;;;;;;;;19.40;63.70;;;;;;5025625;28;1128;-74
2022/05/19 04:58:27;;;;;;;;;;;19.40;63.70;;;;;;5052973;28;1140;-72
2022/05/19 05:00:53;;;;;;;;;;;19.40;63.60;;;;;;5045625;28;1906;-72
2022/05/19 05:03:18;;;;;;;;;;;19.40;63.60;;;;;;5048479;28;1373;-73
2022/05/19 05:05:44;;;;;;;;;;;19.40;63.60;;;;;;5026049;28;1206;-73
2022/05/19 05:08:09;;;;;;;;;;;19.40;63.60;;;;;;5048311;28;1167;-73
2022/05/19 05:10:35;;;;;;;;;;;19.40;63.70;;;;;;5042410;28;1143;-73
2022/05/19 05:13:04;;;;;;;;;;;19.40;63.60;;;;;;5039559;28;1350;-73
2022/05/19 05:15:29;;;;;;;;;;;19.40;63.70;;;;;;5042938;28;1130;-75
2022/05/19 05:17:55;;;;;;;;;;;19.40;63.60;;;;;;5025339;28;1339;-74
2022/05/19 05:20:20;;;;;;;;;;;19.40;63.60;;;;;;5052341;28;1963;-74
2022/05/19 05:22:46;;;;;;;;;;;19.40;63.70;;;;;;5034999;28;1295;-74
2022/05/19 05:25:12;;;;;;;;;;;19.40;63.70;;;;;;5035247;28;1290;-74
2022/05/19 05:27:38;;;;;;;;;;;19.40;63.60;;;;;;5044401;28;1084;-74
2022/05/19 05:30:04;;;;;;;;;;;19.40;63.70;;;;;;5032633;28;1056;-74
2022/05/19 05:32:30;;;;;;;;;;;19.40;63.60;;;;;;5036592;28;1432;-74
2022/05/19 05:34:55;;;;;;;;;;;19.40;63.70;;;;;;5014925;28;1269;-74
2022/05/19 05:37:21;;;;;;;;;;;19.40;63.60;;;;;;5049419;28;1104;-72
2022/05/19 05:39:46;;;;;;;;;;;19.40;63.70;;;;;;5052535;28;1059;-74
2022/05/19 05:42:12;;;;;;;;;;;19.40;63.70;;;;;;5048655;28;1987;-74
2022/05/19 05:44:37;;;;;;;;;;;19.40;63.70;;;;;;5070143;22;3929;-70
2022/05/19 05:47:03;;;;;;;;;;;19.40;63.70;;;;;;5069506;28;945;-70
2022/05/19 05:49:28;;;;;;;;;;;19.40;63.70;;;;;;5072504;28;1286;-71
2022/05/19 05:51:54;;;;;;;;;;;19.40;63.70;;;;;;5054572;28;1143;-71
2022/05/19 05:54:19;;;;;;;;;;;19.40;63.70;;;;;;5072306;28;1374;-70
2022/05/19 05:56:45;;;;;;;;;;;19.40;63.70;;;;;;5072512;28;1313;-71
2022/05/19 05:59:10;;;;;;;;;;;19.40;63.70;;;;;;5072294;28;1259;-69
2022/05/19 06:01:35;;;;;;;;;;;19.40;63.70;;;;;;5071771;28;1910;-67
2022/05/19 06:04:02;;;;;;;;;;;19.40;63.70;;;;;;5075899;28;1277;-69
2022/05/19 06:06:28;;;;;;;;;;;19.40;63.70;;;;;;5075519;28;1122;-69
2022/05/19 06:08:53;;;;;;;;;;;19.40;63.70;;;;;;5074766;28;1260;-68
2022/05/19 06:11:19;;;;;;;;;;;19.40;63.70;;;;;;5074158;28;1353;-68
2022/05/19 06:13:44;;;;;;;;;;;19.40;63.70;;;;;;5075896;28;1367;-68
2022/05/19 06:16:10;;;;;;;;;;;19.40;63.60;;;;;;5075905;28;1304;-69
2022/05/19 06:18:35;;;;;;;;;;;19.40;63.70;;;;;;5074137;28;1364;-69
2022/05/19 06:21:00;;;;;;;;;;;19.40;63.70;;;;;;5074702;28;1897;-68
2022/05/19 06:23:26;;;;;;;;;;;19.40;63.70;;;;;;5091131;28;1290;-69
2022/05/19 06:25:51;;;;;;;;;;;19.40;63.70;;;;;;5075822;28;1409;-70
2022/05/19 06:28:17;;;;;;;;;;;19.40;63.70;;;;;;5076131;28;1509;-69
2022/05/19 06:30:42;;;;;;;;;;;19.40;63.70;;;;;;5073099;28;1851;-70
2022/05/19 06:33:08;;;;;;;;;;;19.40;63.70;;;;;;5074445;28;1553;-69
2022/05/19 06:35:34;;;;;;;;;;;19.40;63.70;;;;;;5075317;28;1406;-70
2022/05/19 06:37:59;;;;;;;;;;;19.40;63.70;;;;;;5075695;28;1055;-70
2022/05/19 06:40:25;;;;;;;;;;;19.40;63.70;;;;;;5073398;28;2030;-70
2022/05/19 06:42:51;;;;;;;;;;;19.40;63.70;;;;;;5074010;28;1270;-70
2022/05/19 06:45:17;;;;;;;;;;;19.40;63.70;;;;;;5075413;28;1126;-69
2022/05/19 06:47:42;;;;;;;;;;;19.40;63.70;;;;;;5075521;28;1280;-70
2022/05/19 06:50:08;;;;;;;;;;;19.40;63.70;;;;;;5072258;28;1452;-69
2022/05/19 06:52:34;;;;;;;;;;;19.40;63.70;;;;;;5075133;28;1389;-69
2022/05/19 06:55:00;;;;;;;;;;;19.40;63.70;;;;;;5074358;28;1182;-70
2022/05/19 06:57:25;;;;;;;;;;;19.40;63.70;;;;;;5075125;28;1062;-70
2022/05/19 06:59:51;;;;;;;;;;;19.40;63.70;;;;;;5072956;28;1371;-69
2022/05/19 07:02:17;;;;;;;;;;;19.40;63.70;;;;;;5074208;28;1898;-70
2022/05/19 07:04:43;;;;;;;;;;;19.40;63.70;;;;;;5073913;28;1332;-70
2022/05/19 07:07:09;;;;;;;;;;;19.40;63.70;;;;;;5073877;28;1000;-69
2022/05/19 07:09:34;;;;;;;;;;;19.40;63.70;;;;;;5075069;28;1237;-69
2022/05/19 07:12:00;;;;;;;;;;;19.40;63.70;;;;;;5073182;28;1342;-70
2022/05/19 07:14:26;;;;;;;;;;;19.40;63.70;;;;;;5074012;28;1412;-70
2022/05/19 07:16:51;;;;;;;;;;;19.40;63.70;;;;;;5056522;28;1284;-69
2022/05/19 07:22:01;;;;;;;;;;;19.40;63.70;;;;;;5073769;28;1918;-69
2022/05/19 07:24:26;;;;;;;;;;;19.40;63.70;;;;;;5074378;28;1328;-69
2022/05/19 07:26:52;;;;;;;;;;;19.40;63.70;;;;;;5074468;28;1319;-69
2022/05/19 07:29:18;;;;;;;;;;;19.40;63.70;;;;;;5074355;28;1346;-69
2022/05/19 07:31:43;;;;;;;;;;;19.40;63.70;;;;;;5073977;28;1059;-69
2022/05/19 07:34:10;;;;;;;;;;;19.40;63.70;;;;;;5073351;28;1262;-70
2022/05/19 07:36:36;;;;;;;;;;;19.40;63.70;;;;;;5074586;28;1063;-69
2022/05/19 07:39:01;;;;;;;;;;;19.40;63.70;;;;;;5074010;28;1312;-69
2022/05/19 07:41:27;;;;;;;;;;;19.40;63.70;;;;;;5073530;28;1906;-69
2022/05/19 07:43:53;;;;;;;;;;;19.40;63.70;;;;;;5074015;28;1180;-70
2022/05/19 07:46:19;;;;;;;;;;;19.40;63.70;;;;;;5073091;28;1158;-69
2022/05/19 07:48:44;;;;;;;;;;;19.40;63.70;;;;;;5073317;28;1039;-69
2022/05/19 07:51:10;;;;;;;;;;;19.40;63.70;;;;;;5073545;28;1285;-69
2022/05/19 07:53:36;;;;;;;;;;;19.40;63.70;;;;;;5073923;28;1864;-70
2022/05/19 07:56:01;;;;;;;;;;;19.40;63.70;;;;;;5073935;28;1079;-70
2022/05/19 07:58:29;;;;;;;;;;;19.40;63.70;;;;;;5073809;28;1110;-69
2022/05/19 08:00:55;;;;;;;;;;;19.40;63.70;;;;;;5072765;28;1913;-69
2022/05/19 08:03:21;;;;;;;;;;;19.40;63.70;;;;;;5072443;28;1277;-70
2022/05/19 08:05:46;;;;;;;;;;;19.40;63.80;;;;;;5073418;28;1110;-70
2022/05/19 08:08:12;;;;;;;;;;;19.40;63.80;;;;;;5073846;28;1981;-69
2022/05/19 08:10:37;;;;;;;;;;;19.40;63.70;;;;;;5073092;28;1263;-70
2022/05/19 08:15:47;;;;;;;;;;;19.40;63.80;;;;;;5073223;28;1324;-69
2022/05/19 08:18:13;;;;;;;;;;;19.40;63.80;;;;;;5072346;28;1434;-70
2022/05/19 08:20:43;;;;;;;;;;;19.40;63.80;;;;;;5071726;28;1952;-69
2022/05/19 08:23:11;;;;;;;;;;;19.40;63.80;;;;;;5073407;28;1376;-70
2022/05/19 08:25:37;;;;;;;;;;;19.40;63.70;;;;;;5072100;28;1114;-69
2022/05/19 08:28:02;;;;;;;;;;;19.40;63.80;;;;;;5073118;28;1347;-70
2022/05/19 08:30:28;;;;;;;;;;;19.40;63.80;;;;;;5054778;28;1403;-69
2022/05/19 08:32:53;;;;;;;;;;;19.40;63.80;;;;;;5073007;28;1326;-70
2022/05/19 08:35:20;;;;;;;;;;;19.40;63.80;;;;;;5072100;28;1353;-69
2022/05/19 08:37:46;;;;;;;;;;;19.40;63.80;;;;;;5073292;28;1246;-69
2022/05/19 08:40:12;;;;;;;;;;;19.40;63.80;;;;;;5072067;28;1118;-69
2022/05/19 08:42:38;;;;;;;;;;;19.40;63.80;;;;;;5072569;28;1902;-69
2022/05/19 08:45:04;;;;;;;;;;;19.40;63.80;;;;;;5073015;28;1375;-70
2022/05/19 08:47:30;;;;;;;;;;;19.40;63.80;;;;;;5073380;28;1206;-69
2022/05/19 08:50:03;;;;;;;;;;;19.40;63.80;;;;;;5072966;28;1308;-69
2022/05/19 08:52:39;;;;;;;;;;;19.40;63.80;;;;;;5071985;28;1338;-69
2022/05/19 08:55:04;;;;;;;;;;;19.40;63.80;;;;;;5073000;28;1185;-69
2022/05/19 08:57:30;;;;;;;;;;;19.40;63.80;;;;;;5071715;28;1265;-69
2022/05/19 08:59:58;;;;;;;;;;;19.40;63.80;;;;;;5071505;28;1346;-69
2022/05/19 09:02:29;;;;;;;;;;;19.40;63.80;;;;;;5071580;28;1910;-69
2022/05/19 09:04:57;;;;;;;;;;;19.40;63.80;;;;;;5071236;28;1212;-69
2022/05/19 09:10:30;;;;;;;;;;;19.40;63.90;;;;;;5071262;28;1126;-70
2022/05/19 09:13:00;;;;;;;;;;;19.40;63.80;;;;;;5072374;28;1300;-69
2022/05/19 09:15:25;;;;;;;;;;;19.40;63.80;;;;;;5071431;28;1085;-69
2022/05/19 09:17:50;;;;;;;;;;;19.40;63.80;;;;;;5070974;28;1314;-69
2022/05/19 09:20:18;;;;;;;;;;;19.40;63.80;;;;;;5071906;28;1086;-69
2022/05/19 09:22:43;;;;;;;;;;;19.40;63.80;;;;;;5071394;28;1906;-70
2022/05/19 09:25:10;;;;;;;;;;;19.40;63.80;;;;;;5072635;28;1293;-70
2022/05/19 09:27:36;;;;;;;;;;;19.40;63.80;;;;;;5071133;28;1291;-69
2022/05/19 09:30:02;;;;;;;;;;;19.40;63.80;;;;;;5070979;28;1297;-69
2022/05/19 09:32:31;;;;;;;;;;;19.40;63.80;;;;;;5072716;28;1376;-69
2022/05/19 09:35:02;;;;;;;;;;;19.40;63.80;;;;;;5072323;28;1200;-69
2022/05/19 09:37:29;;;;;;;;;;;19.40;63.90;;;;;;5070542;28;1107;-69
2022/05/19 09:40:27;;;;;;;;;;;19.40;63.80;;;;;;5087443;28;1638;-69
2022/05/19 09:42:53;;;;;;;;;;;19.40;63.80;;;;;;5048480;28;1997;-69
2022/05/19 09:45:19;;;;;;;;;;;19.40;63.80;;;;;;5072467;28;1110;-69
2022/05/19 09:47:46;;;;;;;;;;;19.40;63.80;;;;;;5071063;28;1392;-69
2022/05/19 09:50:18;;;;;;;;;;;19.40;63.90;;;;;;5070560;28;1602;-69
2022/05/19 09:52:44;;;;;;;;;;;19.40;63.90;;;;;;5070667;28;1281;-69
2022/05/19 09:55:10;;;;;;;;;;;19.40;63.80;;;;;;5072240;28;1346;-70
2022/05/19 09:57:51;;;;;;;;;;;19.40;63.80;;;;;;5071900;28;1387;-70
2022/05/19 10:00:18;;;;;;;;;;;19.40;63.80;;;;;;5071443;28;1094;-69
2022/05/19 10:02:44;;;;;;;;;;;19.40;63.80;;;;;;5072231;28;1905;-69
2022/05/19 10:05:24;;;;;;;;;;;19.40;63.80;;;;;;5070719;28;1361;-69
2022/05/19 10:07:49;;;;;;;;;;;19.40;63.80;;;;;;5070744;28;1371;-70
2022/05/19 10:10:17;;;;;;;;;;;19.40;63.80;;;;;;5070206;28;1356;-69
2022/05/19 10:12:42;;;;;;;;;;;19.40;63.80;;;;;;5087554;28;1279;-69
2022/05/19 10:15:13;;;;;;;;;;;19.40;63.80;;;;;;5071401;28;1059;-69
2022/05/19 10:17:58;;;;;;;;;;;19.40;63.80;;;;;;5071490;28;1666;-69
2022/05/19 10:20:25;;;;;;;;;;;19.40;63.80;;;;;;5067278;28;1121;-69
2022/05/19 10:22:56;;;;;;;;;;;19.40;63.80;;;;;;5069170;28;1951;-69
2022/05/19 10:25:27;;;;;;;;;;;19.40;63.80;;;;;;5071684;28;1313;-69
2022/05/19 10:31:03;;;;;;;;;;;19.40;63.80;;;;;;5070509;28;1240;-68
2022/05/19 10:33:28;;;;;;;;;;;19.40;63.80;;;;;;5068206;28;1909;-69
2022/05/19 10:35:59;;;;;;;;;;;19.40;63.90;;;;;;5067917;28;1034;-69
2022/05/19 10:38:41;;;;;;;;;;;19.40;63.80;;;;;;5064002;28;1294;-69
2022/05/19 10:41:12;;;;;;;;;;;19.40;63.90;;;;;;5066071;28;1969;-68
2022/05/19 10:43:37;;;;;;;;;;;19.40;63.80;;;;;;5068253;28;1381;-68
2022/05/19 10:46:02;;;;;;;;;;;19.40;63.90;;;;;;5070347;28;1306;-68
2022/05/19 10:48:41;;;;;;;;;;;19.40;63.80;;;;;;5069859;28;1297;-68
2022/05/19 10:51:12;;;;;;;;;;;19.40;63.80;;;;;;5072493;28;1269;-68
2022/05/19 10:53:46;;;;;;;;;;;19.40;63.80;;;;;;5074392;28;1209;-68
2022/05/19 10:56:17;;;;;;;;;;;19.40;63.90;;;;;;5073146;28;1272;-68
2022/05/19 10:58:49;;;;;;;;;;;19.40;63.80;;;;;;5074104;28;1690;-68
2022/05/19 11:01:41;;;;;;;;;;;19.40;63.80;;;;;;5072157;28;1910;-68
2022/05/19 11:04:20;;;;;;;;;;;19.40;63.80;;;;;;5070939;28;1446;-68
2022/05/19 11:06:48;;;;;;;;;;;19.40;63.80;;;;;;5072941;28;1146;-68
2022/05/19 11:09:18;;;;;;;;;;;19.40;63.90;;;;;;5072486;28;1297;-68
2022/05/19 11:11:47;;;;;;;;;;;19.40;63.90;;;;;;5064697;28;1579;-69
2022/05/19 11:14:18;;;;;;;;;;;19.40;63.80;;;;;;5070521;28;1311;-68
2022/05/19 11:17:05;;;;;;;;;;;19.40;63.80;;;;;;5071545;28;1546;-69
2022/05/19 11:19:31;;;;;;;;;;;19.40;63.80;;;;;;5060647;28;1317;-69
2022/05/19 11:21:58;;;;;;;;;;;19.40;63.80;;;;;;5070716;28;1938;-68
2022/05/19 11:24:26;;;;;;;;;;;19.40;63.80;;;;;;5071426;28;1345;-68
2022/05/19 11:26:54;;;;;;;;;;;19.40;63.90;;;;;;5070480;28;1220;-68
2022/05/19 11:29:33;;;;;;;;;;;19.40;63.80;;;;;;5066429;28;1335;-68
2022/05/19 11:32:04;;;;;;;;;;;19.40;63.90;;;;;;5070050;28;1312;-68
2022/05/19 11:34:48;;;;;;;;;;;19.40;63.90;;;;;;5071382;28;1318;-70
2022/05/19 11:37:14;;;;;;;;;;;19.40;63.90;;;;;;5072640;28;1369;-71
2022/05/19 11:39:42;;;;;;;;;;;19.40;63.90;;;;;;5072397;28;1261;-69
2022/05/19 11:42:16;;;;;;;;;;;19.40;63.90;;;;;;5070390;28;1968;-71
2022/05/19 11:44:43;;;;;;;;;;;19.40;63.80;;;;;;5071261;28;1259;-67
2022/05/19 11:55:12;;;;;;;;;;;19.40;63.90;;;;;;5071134;28;1320;-68
2022/05/19 11:55:45;;;;;;;;;;;19.40;63.90;;;;;;5072333;28;1197;-69
2022/05/19 11:58:20;;;;;;;;;;;19.40;63.90;;;;;;5072072;28;1291;-69
2022/05/19 12:01:00;;;;;;;;;;;19.40;63.90;;;;;;5071268;28;1906;-69
2022/05/19 12:03:29;;;;;;;;;;;19.40;63.90;;;;;;5070510;28;1229;-69
2022/05/19 12:06:02;;;;;;;;;;;19.40;63.90;;;;;;5058913;28;1291;-69
2022/05/19 12:08:28;;;;;;;;;;;19.40;63.90;;;;;;5072157;28;1301;-70
2022/05/19 12:10:55;;;;;;;;;;;19.40;63.90;;;;;;5065632;28;1911;-71
2022/05/19 12:13:24;;;;;;;;;;;19.40;63.90;;;;;;5046863;28;1397;-72
2022/05/19 12:15:51;;;;;;;;;;;19.40;63.90;;;;;;5072009;28;1198;-73
2022/05/19 12:18:23;;;;;;;;;;;19.40;63.90;;;;;;5084990;22;2064;-73
2022/05/19 12:21:00;;;;;;;;;;;19.40;63.90;;;;;;5037302;28;1910;-73
2022/05/19 12:23:27;;;;;;;;;;;19.40;64.10;;;;;;5053673;28;1189;-74
2022/05/19 12:25:54;;;;;;;;;;;19.40;63.90;;;;;;5055252;28;1202;-72
2022/05/19 12:28:19;;;;;;;;;;;19.40;64.00;;;;;;5054573;28;1227;-73
2022/05/19 12:33:39;;;;;;;;;;;19.40;63.90;;;;;;5056975;28;1311;-74
2022/05/19 12:36:05;;;;;;;;;;;19.40;63.90;;;;;;5053210;28;1339;-73
2022/05/19 12:38:32;;;;;;;;;;;19.40;63.90;;;;;;5053836;28;1350;-73
2022/05/19 12:40:58;;;;;;;;;;;19.40;63.90;;;;;;5054158;28;1902;-72
2022/05/19 12:43:26;;;;;;;;;;;19.40;63.90;;;;;;5053542;28;1067;-74
2022/05/19 12:45:53;;;;;;;;;;;19.40;63.90;;;;;;5053943;28;1162;-72
2022/05/19 12:48:21;;;;;;;;;;;19.40;63.90;;;;;;5053449;28;1301;-72
2022/05/19 12:50:51;;;;;;;;;;;19.40;63.90;;;;;;5036272;28;1451;-71
2022/05/19 12:53:23;;;;;;;;;;;19.40;63.90;;;;;;5053814;28;1083;-72
2022/05/19 12:55:53;;;;;;;;;;;19.40;63.90;;;;;;5057977;28;1270;-71
2022/05/19 12:58:33;;;;;;;;;;;19.40;63.90;;;;;;5053479;28;1231;-73
2022/05/19 13:01:18;;;;;;;;;;;19.40;63.90;;;;;;5070726;28;1910;-72
2022/05/19 13:03:44;;;;;;;;;;;19.40;63.90;;;;;;5070977;28;1048;-71
2022/05/19 13:06:09;;;;;;;;;;;19.40;63.90;;;;;;5053727;28;1151;-72
2022/05/19 13:08:39;;;;;;;;;;;19.40;63.90;;;;;;5054274;28;1332;-73
2022/05/19 13:11:24;;;;;;;;;;;19.40;63.90;;;;;;5050024;28;1867;-72
2022/05/19 13:13:57;;;;;;;;;;;19.40;63.90;;;;;;5044592;28;813;-72
2022/05/19 13:16:27;;;;;;;;;;;19.40;63.90;;;;;;5053886;28;1289;-72
2022/05/19 13:18:53;;;;;;;;;;;19.40;64.00;;;;;;5065025;28;1722;-73
2022/05/19 13:21:20;;;;;;;;;;;19.40;64.00;;;;;;5050190;28;1959;-73
2022/05/19 13:23:45;;;;;;;;;;;19.40;63.90;;;;;;5036336;28;1397;-72
2022/05/19 13:26:27;;;;;;;;;;;19.40;64.00;;;;;;5036104;28;1495;-72
2022/05/19 13:31:48;;;;;;;;;;;19.40;63.90;;;;;;5055318;28;1256;-73
2022/05/19 13:34:13;;;;;;;;;;;19.40;63.90;;;;;;5052973;28;1383;-73
2022/05/19 13:36:38;;;;;;;;;;;19.40;63.90;;;;;;5070946;28;1604;-73
2022/05/19 13:39:05;;;;;;;;;;;19.40;63.90;;;;;;5053246;28;1643;-73
2022/05/19 13:41:32;;;;;;;;;;;19.40;63.90;;;;;;5052448;28;1911;-73
2022/05/19 13:43:57;;;;;;;;;;;19.40;63.90;;;;;;5070912;28;1572;-73
2022/05/19 13:46:23;;;;;;;;;;;19.40;64.00;;;;;;5053302;28;1597;-73
2022/05/19 13:48:52;;;;;;;;;;;19.40;64.00;;;;;;5052417;28;1463;-73
2022/05/19 13:51:17;;;;;;;;;;;19.40;63.90;;;;;;5052457;28;1696;-73
2022/05/19 13:53:43;;;;;;;;;;;19.40;63.90;;;;;;5069231;28;1441;-73
2022/05/19 13:56:09;;;;;;;;;;;19.40;63.90;;;;;;5053304;28;1580;-73
2022/05/19 13:58:34;;;;;;;;;;;19.40;63.90;;;;;;5070616;28;1377;-72
2022/05/19 14:01:00;;;;;;;;;;;19.40;63.90;;;;;;5052794;28;1902;-74
2022/05/19 14:03:25;;;;;;;;;;;19.40;63.90;;;;;;5052943;28;1494;-73
2022/05/19 14:05:51;;;;;;;;;;;19.40;63.90;;;;;;5053882;28;1548;-73
2022/05/19 14:08:18;;;;;;;;;;;19.40;63.90;;;;;;5053366;28;1635;-72
2022/05/19 14:10:44;;;;;;;;;;;19.40;63.90;;;;;;5052608;28;1382;-74
2022/05/19 14:13:10;;;;;;;;;;;19.40;63.90;;;;;;5071720;28;1650;-73
2022/05/19 14:15:43;;;;;;;;;;;19.40;63.90;;;;;;5070589;28;2040;-74
2022/05/19 14:18:10;;;;;;;;;;;19.40;63.90;;;;;;5051480;28;1629;-74
2022/05/19 14:20:42;;;;;;;;;;;19.40;63.90;;;;;;5071014;28;1154;-73
2022/05/19 14:23:12;;;;;;;;;;;19.40;63.90;;;;;;5053973;28;2068;-73
2022/05/19 14:25:38;;;;;;;;;;;19.40;63.90;;;;;;5065088;28;1846;-73
2022/05/19 14:28:20;;;;;;;;;;;19.50;64.00;;;;;;5054265;28;1269;-74
2022/05/19 14:30:45;;;;;;;;;;;19.50;64.70;;;;;;5053292;28;1657;-74
2022/05/19 14:33:16;;;;;;;;;;;19.40;63.90;;;;;;5040785;28;1239;-73
2022/05/19 14:35:55;;;;;;;;;;;19.40;64.00;;;;;;5070887;28;1055;-74
2022/05/19 14:38:25;;;;;;;;;;;19.40;63.90;;;;;;5055533;28;1828;-73
2022/05/19 14:43:36;;;;;;;;;;;19.40;63.90;;;;;;5058465;28;1774;-72
2022/05/19 14:46:02;;;;;;;;;;;19.40;63.90;;;;;;5063828;28;1175;-72
2022/05/19 14:48:35;;;;;;;;;;;19.40;63.90;;;;;;5056402;28;1336;-72
2022/05/19 14:51:01;;;;;;;;;;;19.40;63.90;;;;;;5056265;28;1300;-74
2022/05/19 14:53:26;;;;;;;;;;;19.50;64.00;;;;;;5074327;28;1178;-73
2022/05/19 14:55:57;;;;;;;;;;;19.40;64.00;;;;;;5056763;28;1122;-73
2022/05/19 14:58:22;;;;;;;;;;;19.40;64.00;;;;;;5074249;28;1329;-74
2022/05/19 15:00:48;;;;;;;;;;;19.40;64.00;;;;;;5055121;28;1957;-71